createdAt,value
2023-12-12T00:01:28.788Z,1.77
2023-12-12T00:04:09.659Z,1.87
2023-12-12T00:06:49.987Z,1.60
2023-12-12T00:09:30.306Z,1.70
2023-12-12T00:12:10.639Z,2.03
2023-12-12T00:14:50.766Z,1.80
2023-12-12T00:17:31.404Z,1.67
2023-12-12T00:20:11.798Z,1.73
2023-12-12T00:22:51.791Z,1.80
2023-12-12T00:25:32.401Z,2.13
2023-12-12T00:28:12.673Z,2.00
2023-12-12T00:30:52.999Z,1.90
2023-12-12T00:33:33.261Z,2.43
2023-12-12T00:36:13.479Z,3.10
2023-12-12T00:38:53.502Z,2.20
2023-12-12T00:41:34.377Z,2.17
2023-12-12T00:44:14.795Z,2.17
2023-12-12T00:46:54.865Z,2.33
2023-12-12T00:49:34.919Z,2.80
2023-12-12T00:52:15.056Z,2.50
2023-12-12T00:54:55.453Z,2.67
2023-12-12T00:57:36.306Z,2.40
2023-12-12T01:00:17.081Z,1.90
2023-12-12T01:02:57.195Z,2.13
2023-12-12T01:05:37.583Z,2.43
2023-12-12T01:08:17.511Z,2.07
2023-12-12T01:10:57.597Z,2.03
2023-12-12T01:13:37.615Z,2.43
2023-12-12T01:16:18.066Z,2.00
2023-12-12T01:18:58.568Z,2.20
2023-12-12T01:21:38.769Z,2.03
2023-12-12T01:24:18.779Z,2.20
2023-12-12T01:26:58.850Z,1.83
2023-12-12T01:29:39.062Z,1.90
2023-12-12T01:32:19.050Z,2.10
2023-12-12T01:34:59.412Z,2.27
2023-12-12T01:37:39.494Z,2.43
2023-12-12T01:40:19.876Z,2.07
2023-12-12T01:43:06.872Z,1.80
2023-12-12T01:45:47.085Z,1.83
2023-12-12T01:48:28.999Z,2.00
2023-12-12T01:51:09.888Z,1.80
2023-12-12T01:53:52.848Z,2.07
2023-12-12T01:56:34.979Z,1.90
2023-12-12T01:59:15.399Z,1.97
2023-12-12T02:01:56.085Z,1.60
2023-12-12T02:04:36.166Z,1.90
2023-12-12T02:07:17.062Z,1.90
2023-12-12T02:09:57.210Z,1.83
2023-12-12T02:12:37.332Z,1.40
2023-12-12T02:15:17.399Z,2.10
2023-12-12T02:17:57.669Z,2.00
2023-12-12T02:20:37.545Z,2.30
2023-12-12T02:23:17.578Z,2.00
2023-12-12T02:25:59.340Z,2.07
2023-12-12T02:28:41.040Z,2.10
2023-12-12T02:31:21.112Z,1.97
2023-12-12T02:34:01.040Z,1.87
2023-12-12T02:36:41.226Z,1.70
2023-12-12T02:39:21.214Z,2.30
2023-12-12T02:42:01.257Z,2.40
2023-12-12T02:44:41.306Z,2.33
2023-12-12T02:47:23.992Z,1.90
2023-12-12T02:50:04.932Z,2.07
2023-12-12T02:52:45.146Z,2.20
2023-12-12T02:55:25.181Z,2.07
2023-12-12T02:58:05.657Z,2.00
2023-12-12T03:00:46.232Z,2.27
2023-12-12T03:03:26.091Z,1.93
2023-12-12T03:06:08.558Z,1.90
2023-12-12T03:08:48.536Z,1.97
2023-12-12T03:11:28.844Z,2.00
2023-12-12T03:14:08.878Z,2.37
2023-12-12T03:16:49.423Z,2.30
2023-12-12T03:19:29.796Z,1.67
2023-12-12T03:22:09.734Z,1.80
2023-12-12T03:24:50.024Z,1.70
2023-12-12T03:27:30.432Z,2.10
2023-12-12T03:30:11.451Z,2.00
2023-12-12T03:32:51.969Z,1.67
2023-12-12T03:35:32.118Z,2.03
2023-12-12T03:38:12.332Z,1.50
2023-12-12T03:40:52.796Z,2.07
2023-12-12T03:43:32.836Z,2.00
2023-12-12T03:46:14.215Z,1.90
2023-12-12T03:48:54.649Z,1.90
2023-12-12T03:51:34.825Z,2.27
2023-12-12T03:54:15.720Z,2.10
2023-12-12T03:56:56.326Z,3.10
2023-12-12T03:59:36.615Z,2.10
2023-12-12T04:02:16.942Z,2.20
2023-12-12T04:04:56.959Z,1.93
2023-12-12T04:07:38.952Z,2.20
2023-12-12T04:10:19.513Z,2.00
2023-12-12T04:12:59.886Z,2.30
2023-12-12T04:15:39.912Z,2.43
2023-12-12T04:18:19.970Z,1.83
2023-12-12T04:21:00.361Z,2.27
2023-12-12T04:23:43.854Z,2.60
2023-12-12T04:26:24.580Z,2.10
2023-12-12T04:29:07.273Z,1.97
2023-12-12T04:31:51.334Z,2.37
2023-12-12T04:34:33.224Z,1.90
2023-12-12T04:37:13.571Z,2.00
2023-12-12T04:39:55.048Z,2.10
2023-12-12T04:42:35.237Z,2.03
2023-12-12T04:45:15.581Z,2.23
2023-12-12T04:47:55.728Z,2.27
2023-12-12T04:50:35.901Z,1.90
2023-12-12T04:53:17.754Z,2.20
2023-12-12T04:55:57.723Z,2.00
2023-12-12T04:58:38.101Z,2.60
2023-12-12T05:01:19.467Z,2.33
2023-12-12T05:04:01.213Z,3.10
2023-12-12T05:06:41.417Z,2.50
2023-12-12T05:09:21.824Z,2.60
2023-12-12T05:12:02.188Z,3.13
2023-12-12T05:14:42.111Z,2.00
2023-12-12T05:17:22.653Z,2.77
2023-12-12T05:20:04.559Z,2.80
2023-12-12T05:22:45.049Z,2.43
2023-12-12T05:25:26.469Z,3.60
2023-12-12T05:28:07.321Z,2.17
2023-12-12T05:30:47.463Z,2.30
2023-12-12T05:33:27.912Z,2.37
2023-12-12T05:36:08.541Z,1.83
2023-12-12T05:38:48.520Z,2.57
2023-12-12T05:41:28.736Z,2.53
2023-12-12T05:44:11.563Z,2.53
2023-12-12T05:46:53.253Z,2.10
2023-12-12T05:49:33.590Z,2.70
2023-12-12T05:52:13.762Z,2.37
2023-12-12T05:54:54.190Z,1.90
2023-12-12T05:57:34.623Z,2.10
2023-12-12T06:00:15.532Z,2.00
2023-12-12T06:02:55.787Z,2.03
2023-12-12T06:05:35.850Z,2.80
2023-12-12T06:08:16.913Z,2.30
2023-12-12T06:10:57.108Z,3.03
2023-12-12T06:13:37.363Z,2.30
2023-12-12T06:16:18.887Z,2.33
2023-12-12T06:18:59.448Z,1.83
2023-12-12T06:21:40.014Z,2.07
2023-12-12T06:24:20.940Z,2.10
2023-12-12T06:27:01.257Z,2.03
2023-12-12T06:29:41.439Z,1.97
2023-12-12T06:32:23.632Z,2.13
2023-12-12T06:35:05.608Z,2.30
2023-12-12T06:37:46.244Z,1.93
2023-12-12T06:40:26.894Z,2.47
2023-12-12T06:43:07.259Z,2.40
2023-12-12T06:45:47.603Z,2.20
2023-12-12T06:48:27.824Z,2.70
2023-12-12T06:51:10.443Z,2.00
2023-12-12T06:53:53.874Z,2.20
2023-12-12T06:56:34.089Z,2.20
2023-12-12T06:59:14.268Z,2.13
2023-12-12T07:01:54.988Z,2.07
2023-12-12T07:04:34.855Z,1.97
2023-12-12T07:07:15.684Z,1.77
2023-12-12T07:09:59.661Z,3.07
2023-12-12T07:12:40.774Z,2.30
2023-12-12T07:15:20.831Z,2.20
2023-12-12T07:18:01.270Z,2.27
2023-12-12T07:20:45.297Z,2.37
2023-12-12T07:23:25.381Z,2.90
2023-12-12T07:26:05.753Z,3.03
2023-12-12T07:28:47.359Z,2.90
2023-12-12T07:31:28.172Z,2.90
2023-12-12T07:34:08.360Z,3.00
2023-12-12T07:36:50.917Z,2.67
2023-12-12T07:39:31.685Z,2.00
2023-12-12T07:42:11.953Z,2.87
2023-12-12T07:44:51.813Z,2.80
2023-12-12T07:47:37.606Z,2.40
2023-12-12T07:50:22.775Z,2.10
2023-12-12T07:53:05.717Z,2.60
2023-12-12T07:55:45.722Z,2.53
2023-12-12T07:58:25.666Z,2.20
2023-12-12T08:01:06.006Z,2.73
2023-12-12T08:03:46.136Z,2.23
2023-12-12T08:06:28.164Z,3.33
2023-12-12T08:09:08.504Z,3.47
2023-12-12T08:11:48.437Z,3.40
2023-12-12T08:14:28.585Z,3.00
2023-12-12T08:17:08.790Z,3.80
2023-12-12T08:19:48.955Z,3.50
2023-12-12T08:22:29.279Z,3.53
2023-12-12T08:25:10.034Z,3.93
2023-12-12T08:27:50.123Z,4.53
2023-12-12T08:30:31.675Z,3.50
2023-12-12T08:33:11.796Z,3.10
2023-12-12T08:35:52.062Z,3.00
2023-12-12T08:38:32.200Z,2.77
2023-12-12T08:41:14.137Z,2.70
2023-12-12T08:43:56.206Z,2.77
2023-12-12T08:46:36.325Z,3.93
2023-12-12T08:49:19.040Z,4.33
2023-12-12T08:51:59.732Z,3.30
2023-12-12T08:54:40.042Z,3.33
2023-12-12T08:57:20.822Z,3.90
2023-12-12T09:00:01.169Z,3.20
2023-12-12T09:02:41.274Z,3.40
2023-12-12T09:05:21.532Z,3.90
2023-12-12T09:08:01.737Z,3.97
2023-12-12T09:10:42.070Z,6.87
2023-12-12T09:13:22.011Z,4.80
2023-12-12T09:16:02.143Z,4.83
2023-12-12T09:18:42.380Z,4.33
2023-12-12T09:21:23.218Z,4.53
2023-12-12T09:24:03.843Z,3.63
2023-12-12T09:26:44.843Z,3.73
2023-12-12T09:29:25.146Z,3.20
2023-12-12T09:32:05.597Z,4.30
2023-12-12T09:34:45.683Z,2.90
2023-12-12T09:37:26.235Z,3.10
2023-12-12T09:40:07.587Z,3.20
2023-12-12T09:42:50.933Z,3.40
2023-12-12T09:45:32.373Z,3.40
2023-12-12T09:48:14.394Z,3.87
2023-12-12T09:50:57.870Z,3.57
2023-12-12T09:53:47.380Z,3.10
2023-12-12T09:56:27.668Z,3.37
2023-12-12T09:59:07.936Z,2.57
2023-12-12T10:01:50.776Z,3.13
2023-12-12T10:04:30.797Z,3.63
2023-12-12T10:07:15.136Z,2.57
2023-12-12T10:09:55.124Z,2.43
2023-12-12T10:12:36.245Z,2.77
2023-12-12T10:15:26.978Z,2.60
2023-12-12T10:18:07.513Z,2.53
2023-12-12T10:20:47.955Z,2.20
2023-12-12T10:23:30.147Z,2.37
2023-12-12T10:26:10.487Z,3.70
2023-12-12T10:28:51.071Z,2.27
2023-12-12T10:31:31.313Z,3.40
2023-12-12T10:34:11.589Z,2.50
2023-12-12T10:36:52.011Z,3.03
2023-12-12T10:39:32.310Z,2.50
2023-12-12T10:42:12.470Z,2.90
2023-12-12T10:44:57.414Z,2.27
2023-12-12T10:47:41.836Z,2.20
2023-12-12T10:50:24.484Z,2.23
2023-12-12T10:53:05.836Z,2.60
2023-12-12T10:55:46.347Z,2.43
2023-12-12T10:58:26.772Z,2.43
2023-12-12T11:01:09.790Z,3.60
2023-12-12T11:03:52.026Z,2.10
2023-12-12T11:06:34.547Z,2.23
2023-12-12T11:09:17.513Z,2.33
2023-12-12T11:11:59.050Z,2.97
2023-12-12T11:14:40.244Z,2.53
2023-12-12T11:17:20.233Z,2.30
2023-12-12T11:20:10.843Z,2.10
2023-12-12T11:22:54.173Z,2.50
2023-12-12T11:25:41.546Z,2.70
2023-12-12T11:28:21.899Z,2.90
2023-12-12T11:31:02.263Z,2.37
2023-12-12T11:34:09.093Z,2.70
2023-12-12T11:36:56.406Z,2.87
2023-12-12T11:39:51.245Z,3.17
2023-12-12T11:42:31.955Z,2.73
2023-12-12T11:45:12.832Z,2.60
2023-12-12T11:47:54.962Z,1.90
2023-12-12T11:50:35.488Z,2.93
2023-12-12T11:53:44.073Z,2.70
2023-12-12T11:56:24.178Z,2.30
2023-12-12T11:59:04.924Z,3.13
2023-12-12T12:01:45.770Z,3.13
2023-12-12T12:04:25.905Z,2.73
2023-12-12T12:07:06.947Z,2.80
2023-12-12T12:09:48.340Z,2.20
2023-12-12T12:12:28.713Z,2.43
2023-12-12T12:15:11.949Z,3.10
2023-12-12T12:17:52.389Z,2.97
2023-12-12T12:20:46.071Z,3.10
2023-12-12T12:23:26.496Z,2.67
2023-12-12T12:26:07.056Z,2.93
2023-12-12T12:28:47.316Z,2.40
2023-12-12T12:31:29.242Z,3.03
2023-12-12T12:34:23.654Z,3.00
2023-12-12T12:37:03.922Z,2.37
2023-12-12T12:39:44.644Z,3.03
2023-12-12T12:42:34.881Z,2.57
2023-12-12T12:45:19.462Z,2.73
2023-12-12T12:47:59.847Z,3.20
2023-12-12T12:50:42.630Z,2.60
2023-12-12T12:53:23.032Z,3.07
2023-12-12T12:56:03.556Z,2.97
2023-12-12T12:58:44.263Z,2.93
2023-12-12T13:01:24.485Z,2.97
2023-12-12T13:04:04.476Z,3.40
2023-12-12T13:06:44.641Z,3.50
2023-12-12T13:09:25.141Z,3.73
2023-12-12T13:12:05.461Z,4.23
2023-12-12T13:14:45.605Z,3.10
2023-12-12T13:17:25.848Z,3.10
2023-12-12T13:20:16.888Z,3.07
2023-12-12T13:22:57.490Z,4.30
2023-12-12T13:25:37.896Z,3.30
2023-12-12T13:28:18.344Z,3.10
2023-12-12T13:30:59.782Z,3.90
2023-12-12T13:33:41.153Z,2.83
2023-12-12T13:36:21.383Z,3.20
2023-12-12T13:39:01.431Z,3.13
2023-12-12T13:41:41.629Z,2.77
2023-12-12T13:44:22.111Z,3.17
2023-12-12T13:47:02.188Z,3.83
2023-12-12T13:49:42.373Z,2.87
2023-12-12T13:52:23.307Z,3.40
2023-12-12T13:55:03.441Z,3.20
2023-12-12T13:57:45.637Z,3.90
2023-12-12T14:00:26.467Z,3.63
2023-12-12T14:03:06.999Z,3.27
2023-12-12T14:05:47.462Z,3.77
2023-12-12T14:08:27.542Z,3.97
2023-12-12T14:11:07.586Z,4.07
2023-12-12T14:13:47.846Z,4.90
2023-12-12T14:16:30.216Z,4.13
2023-12-12T14:19:12.931Z,3.23
2023-12-12T14:21:53.192Z,3.67
2023-12-12T14:24:33.213Z,3.77
2023-12-12T14:27:13.191Z,3.97
2023-12-12T14:29:53.686Z,4.30
2023-12-12T14:32:34.719Z,3.73
2023-12-12T14:35:15.333Z,4.23
2023-12-12T14:37:55.476Z,4.00
2023-12-12T14:40:37.090Z,5.27
2023-12-12T14:43:17.493Z,4.20
2023-12-12T14:45:57.974Z,4.37
2023-12-12T14:48:37.999Z,4.70
2023-12-12T14:51:23.792Z,4.53
2023-12-12T14:54:05.397Z,5.00
2023-12-12T14:56:46.084Z,4.77
2023-12-12T14:59:26.438Z,6.13
2023-12-12T15:02:06.644Z,5.63
2023-12-12T15:04:46.795Z,5.13
2023-12-12T15:07:26.895Z,4.33
2023-12-12T15:10:08.121Z,6.30
2023-12-12T15:12:48.116Z,6.17
2023-12-12T15:15:28.181Z,5.10
2023-12-12T15:18:08.675Z,4.83
2023-12-12T15:20:49.410Z,4.87
2023-12-12T15:23:29.714Z,5.73
2023-12-12T15:26:09.838Z,4.17
2023-12-12T15:28:50.959Z,4.27
2023-12-12T15:31:30.974Z,4.20
2023-12-12T15:34:11.974Z,3.27
2023-12-12T15:36:52.188Z,4.23
2023-12-12T15:39:34.303Z,4.00
2023-12-12T15:42:16.294Z,4.23
2023-12-12T15:44:56.622Z,4.57
2023-12-12T15:47:36.806Z,4.03
2023-12-12T15:50:16.941Z,4.33
2023-12-12T15:52:56.867Z,4.07
2023-12-12T15:55:39.445Z,8.57
2023-12-12T15:58:20.668Z,4.97
2023-12-12T16:01:01.073Z,4.53
2023-12-12T16:03:44.010Z,5.97
2023-12-12T16:06:24.352Z,5.33
2023-12-12T16:09:06.416Z,5.00
2023-12-12T16:11:47.610Z,4.77
2023-12-12T16:14:29.924Z,4.60
2023-12-12T16:17:10.213Z,4.37
2023-12-12T16:19:50.606Z,4.93
2023-12-12T16:22:35.439Z,5.20
2023-12-12T16:25:16.132Z,4.27
2023-12-12T16:27:57.669Z,4.40
2023-12-12T16:30:38.002Z,4.63
2023-12-12T16:33:17.893Z,3.93
2023-12-12T16:35:57.884Z,4.27
2023-12-12T16:38:37.789Z,3.67
2023-12-12T16:41:19.124Z,3.57
2023-12-12T16:43:59.079Z,4.03
2023-12-12T16:46:39.667Z,3.20
2023-12-12T16:49:20.856Z,3.50
2023-12-12T16:52:01.620Z,3.27
2023-12-12T16:54:41.566Z,3.50
2023-12-12T16:57:22.003Z,3.40
2023-12-12T17:00:02.254Z,4.10
2023-12-12T17:02:42.767Z,4.17
2023-12-12T17:05:23.337Z,4.03
2023-12-12T17:08:04.173Z,3.80
2023-12-12T17:10:44.351Z,2.83
2023-12-12T17:13:25.895Z,2.60
2023-12-12T17:16:06.743Z,2.40
2023-12-12T17:18:46.794Z,2.73
2023-12-12T17:21:27.099Z,2.20
2023-12-12T17:24:07.543Z,2.40
2023-12-12T17:26:47.834Z,2.97
2023-12-12T17:29:28.273Z,3.03
2023-12-12T17:32:11.497Z,3.00
2023-12-12T17:34:52.007Z,2.70
2023-12-12T17:37:33.934Z,2.90
2023-12-12T17:40:14.530Z,2.40
2023-12-12T17:42:55.003Z,2.50
2023-12-12T17:45:35.766Z,2.67
2023-12-12T17:48:15.859Z,2.17
2023-12-12T17:50:57.107Z,2.30
2023-12-12T17:53:37.364Z,2.33
2023-12-12T17:56:17.422Z,2.57
2023-12-12T17:58:58.955Z,2.83
2023-12-12T18:01:40.781Z,2.40
2023-12-12T18:04:21.473Z,2.43
2023-12-12T18:07:01.786Z,2.00
2023-12-12T18:09:41.993Z,2.03
2023-12-12T18:12:22.332Z,2.27
2023-12-12T18:15:02.669Z,1.90
2023-12-12T18:17:42.795Z,2.10
2023-12-12T18:20:23.802Z,2.40
2023-12-12T18:23:05.140Z,2.40
2023-12-12T18:25:45.592Z,2.60
2023-12-12T18:28:26.375Z,3.47
2023-12-12T18:31:06.770Z,2.70
2023-12-12T18:33:47.025Z,3.37
2023-12-12T18:36:28.095Z,2.70
2023-12-12T18:39:10.422Z,2.20
2023-12-12T18:41:50.766Z,2.27
2023-12-12T18:44:30.922Z,2.70
2023-12-12T18:47:11.237Z,2.43
2023-12-12T18:49:52.200Z,1.90
2023-12-12T18:52:32.439Z,2.03
2023-12-12T18:55:12.824Z,2.23
2023-12-12T18:57:53.165Z,2.60
2023-12-12T19:00:33.177Z,2.60
2023-12-12T19:03:13.713Z,2.80
2023-12-12T19:05:53.589Z,3.50
2023-12-12T19:08:33.800Z,2.90
2023-12-12T19:11:15.047Z,2.90
2023-12-12T19:13:55.296Z,3.10
2023-12-12T19:16:37.203Z,3.30
2023-12-12T19:19:17.364Z,3.13
2023-12-12T19:21:57.719Z,3.40
2023-12-12T19:24:37.925Z,2.90
2023-12-12T19:27:18.330Z,2.83
2023-12-12T19:29:58.995Z,4.27
2023-12-12T19:32:41.361Z,4.07
2023-12-12T19:35:25.143Z,4.00
2023-12-12T19:38:07.315Z,3.70
2023-12-12T19:40:47.722Z,3.30
2023-12-12T19:43:28.073Z,3.57
2023-12-12T19:46:11.566Z,2.97
2023-12-12T19:48:51.656Z,2.90
2023-12-12T19:51:31.908Z,3.10
2023-12-12T19:54:13.361Z,3.37
2023-12-12T19:56:53.818Z,3.00
2023-12-12T19:59:34.109Z,3.80
2023-12-12T20:02:15.492Z,2.60
2023-12-12T20:04:55.776Z,2.80
2023-12-12T20:07:37.023Z,3.13
2023-12-12T20:10:17.666Z,3.40
2023-12-12T20:12:57.916Z,2.10
2023-12-12T20:15:38.117Z,2.50
2023-12-12T20:18:18.780Z,3.13
2023-12-12T20:20:58.817Z,3.00
2023-12-12T20:23:38.940Z,3.07
2023-12-12T20:26:19.437Z,3.03
2023-12-12T20:28:59.850Z,4.77
2023-12-12T20:31:40.340Z,6.17
2023-12-12T20:34:20.550Z,4.80
2023-12-12T20:37:00.461Z,4.83
2023-12-12T20:39:40.336Z,3.70
2023-12-12T20:42:20.853Z,3.27
2023-12-12T20:45:05.181Z,2.90
2023-12-12T20:47:46.243Z,3.77
2023-12-12T20:50:26.428Z,2.97
2023-12-12T20:53:06.783Z,2.50
2023-12-12T20:55:46.886Z,2.50
2023-12-12T20:58:27.314Z,2.80
2023-12-12T21:01:07.815Z,3.50
2023-12-12T21:03:48.951Z,3.40
2023-12-12T21:06:29.425Z,3.50
2023-12-12T21:09:12.955Z,3.23
2023-12-12T21:11:53.119Z,3.00
2023-12-12T21:14:33.047Z,2.30
2023-12-12T21:17:13.073Z,2.77
2023-12-12T21:19:53.044Z,3.40
2023-12-12T21:22:35.948Z,3.20
2023-12-12T21:25:15.895Z,2.50
2023-12-12T21:27:55.922Z,2.63
2023-12-12T21:30:36.273Z,4.37
2023-12-12T21:33:16.548Z,5.73
2023-12-12T21:35:57.016Z,4.93
2023-12-12T21:38:36.945Z,2.80
2023-12-12T21:41:16.981Z,2.90
2023-12-12T21:43:57.337Z,2.83
2023-12-12T21:46:37.656Z,4.13
2023-12-12T21:49:18.115Z,8.47
2023-12-12T21:51:58.405Z,8.00
2023-12-12T21:54:38.650Z,5.23
2023-12-12T21:57:18.691Z,2.93
2023-12-12T21:59:59.486Z,3.23
2023-12-12T22:02:39.821Z,3.40
2023-12-12T22:05:19.978Z,3.23
2023-12-12T22:08:00.363Z,3.93
2023-12-12T22:10:40.805Z,3.30
2023-12-12T22:13:21.213Z,3.17
2023-12-12T22:16:01.505Z,3.00
2023-12-12T22:18:41.873Z,3.43
2023-12-12T22:21:22.172Z,3.67
2023-12-12T22:24:02.434Z,3.70
2023-12-12T22:26:43.651Z,3.73
2023-12-12T22:29:24.351Z,3.60
2023-12-12T22:32:05.279Z,4.07
2023-12-12T22:34:45.318Z,4.13
2023-12-12T22:37:25.736Z,5.43
2023-12-12T22:40:06.673Z,5.00
2023-12-12T22:42:46.769Z,4.60
2023-12-12T22:45:27.138Z,5.03
2023-12-12T22:48:07.449Z,4.63
2023-12-12T22:50:47.838Z,4.70
2023-12-12T22:53:27.912Z,4.70
2023-12-12T22:56:15.372Z,5.03
2023-12-12T22:58:59.866Z,5.00
2023-12-12T23:01:44.701Z,4.90
2023-12-12T23:04:24.876Z,5.00
2023-12-12T23:07:07.810Z,5.00
2023-12-12T23:09:48.431Z,4.43
2023-12-12T23:12:28.333Z,3.70
2023-12-12T23:15:09.141Z,5.03
2023-12-12T23:17:50.530Z,6.90
2023-12-12T23:20:31.144Z,6.47
2023-12-12T23:23:11.245Z,7.33
2023-12-12T23:25:51.456Z,6.20
2023-12-12T23:28:31.640Z,5.40
2023-12-12T23:31:11.780Z,5.70
2023-12-12T23:33:51.988Z,5.00
2023-12-12T23:36:32.435Z,3.20
2023-12-12T23:39:12.628Z,5.30
2023-12-12T23:41:52.848Z,5.00
2023-12-12T23:44:33.136Z,5.27
2023-12-12T23:47:13.846Z,3.50
2023-12-12T23:49:54.110Z,3.97
2023-12-12T23:52:34.299Z,3.97
2023-12-12T23:55:14.676Z,3.40
2023-12-12T23:57:54.916Z,2.97
